18. Juni 2016

Flugvorbereitung

Wetterbriefing:

Aktuelles  METAR(Mannheim-City):

METAR

EDFM 261950Z 33004KT CAVOK 08/M00 Q1031

Wetterinformationen für Piloten:

DWD pc_met Flugwetter gebührenpflichtiges Selfbriefing
AEROWEB Frankreich Selfbriefing (Registrierung notwendig)
AustroControl Flugwetter kostenlose Basisinformationen
MeteoSchweiz Aviatik kostenlose Basisinformation
 Windy  Winddaten, Bewölkung, Niederschlag

NOTAMS / VFR Bulletin / Flugplan

AIS Portal Flugvorbereitungsportal der DFS Flugsicherung

Routenplanung, Karten und Flugplätze:

FL95 VFR Flugplanung
Autorouter IFR Routing
rocketroute Europaweites IFR/VFR Routing
www.airports.de Flughafen – Informationen für Deutschland und Österreich

Allgemeine Informationen für Piloten:

Flugplatz Speyer Informationen von unserem Heimatflugplatz